Seiad Valley, California
Current Conditions -  °F | °C
As of 1:53 AM on Sunday 23 Nov 2014 (Local Time) from KSIY Reporting Station
Clear Clear  
Wind Chill: 30°   Ceiling: Unl
Heat Index: 30°   Visibility: 10mi
Dew Point: 28°   Wind: 3mph
Humidity: 92%   Direction: 40°NE
Pressure: 30.34"   Gusts: NA
Location:  41.84°N, 123.19°W
Report Text: KSIY 230953Z AUTO 04003KT 10SM CLR M01/M02 A3034 RMK AO2 SLP294 T10111022
Loading
Personal Weather Stations






























Interactive Weather Map New forecast layout! Learn more

10-Day Weather Forecast

Advertisements
Track Severe Weather on mobile